sensor_id;sensor_type;location;lat;lon;timestamp;temperature;humidity
45868;DHT22;31582;45.490;7.860;2023-02-12T00:01:11;-0.60;93.90
45868;DHT22;31582;45.490;7.860;2023-02-12T00:03:39;-0.60;93.20
45868;DHT22;31582;45.490;7.860;2023-02-12T00:06:07;-0.80;94.20
45868;DHT22;31582;45.490;7.860;2023-02-12T00:08:35;-0.80;93.90
45868;DHT22;31582;45.490;7.860;2023-02-12T00:11:11;-0.80;93.80
45868;DHT22;31582;45.490;7.860;2023-02-12T00:13:39;-0.90;95.00
45868;DHT22;31582;45.490;7.860;2023-02-12T00:16:11;-0.90;95.10
45868;DHT22;31582;45.490;7.860;2023-02-12T00:18:38;-1.00;94.40
45868;DHT22;31582;45.490;7.860;2023-02-12T00:21:06;-1.00;95.70
45868;DHT22;31582;45.490;7.860;2023-02-12T00:23:36;-1.00;95.20
45868;DHT22;31582;45.490;7.860;2023-02-12T00:26:15;-1.00;95.00
45868;DHT22;31582;45.490;7.860;2023-02-12T00:28:42;-1.00;94.40
45868;DHT22;31582;45.490;7.860;2023-02-12T00:31:11;-1.30;98.10
45868;DHT22;31582;45.490;7.860;2023-02-12T00:33:39;-1.20;97.90
45868;DHT22;31582;45.490;7.860;2023-02-12T00:36:07;-1.20;98.70
45868;DHT22;31582;45.490;7.860;2023-02-12T00:38:34;-1.10;98.90
45868;DHT22;31582;45.490;7.860;2023-02-12T00:41:01;-1.10;98.60
45868;DHT22;31582;45.490;7.860;2023-02-12T00:43:28;-1.10;98.20
45868;DHT22;31582;45.490;7.860;2023-02-12T00:45:55;-1.20;99.60
45868;DHT22;31582;45.490;7.860;2023-02-12T00:48:23;-1.20;99.50
45868;DHT22;31582;45.490;7.860;2023-02-12T00:50:50;-1.20;99.10
45868;DHT22;31582;45.490;7.860;2023-02-12T00:53:16;-1.20;98.70
45868;DHT22;31582;45.490;7.860;2023-02-12T00:55:43;-1.20;98.00
45868;DHT22;31582;45.490;7.860;2023-02-12T00:58:11;-1.20;97.30
45868;DHT22;31582;45.490;7.860;2023-02-12T01:00:38;-1.30;97.20
45868;DHT22;31582;45.490;7.860;2023-02-12T01:03:04;-1.40;99.30
45868;DHT22;31582;45.490;7.860;2023-02-12T01:05:32;-1.40;99.90
45868;DHT22;31582;45.490;7.860;2023-02-12T01:07:58;-1.30;99.90
45868;DHT22;31582;45.490;7.860;2023-02-12T01:10:25;-1.30;99.00
45868;DHT22;31582;45.490;7.860;2023-02-12T01:12:53;-1.40;99.90
45868;DHT22;31582;45.490;7.860;2023-02-12T01:15:20;-1.40;99.50
45868;DHT22;31582;45.490;7.860;2023-02-12T01:17:49;-1.40;99.70
45868;DHT22;31582;45.490;7.860;2023-02-12T01:20:18;-1.40;98.60
45868;DHT22;31582;45.490;7.860;2023-02-12T01:22:45;-1.40;99.20
45868;DHT22;31582;45.490;7.860;2023-02-12T01:25:12;-1.50;99.90
45868;DHT22;31582;45.490;7.860;2023-02-12T01:27:39;-1.50;99.90
45868;DHT22;31582;45.490;7.860;2023-02-12T01:30:08;-1.50;99.90
45868;DHT22;31582;45.490;7.860;2023-02-12T01:32:35;-1.40;99.90
45868;DHT22;31582;45.490;7.860;2023-02-12T01:35:02;-1.00;97.90
45868;DHT22;31582;45.490;7.860;2023-02-12T01:37:30;-0.80;96.70
45868;DHT22;31582;45.490;7.860;2023-02-12T01:39:57;-0.70;95.30
45868;DHT22;31582;45.490;7.860;2023-02-12T01:42:24;-0.70;94.50
45868;DHT22;31582;45.490;7.860;2023-02-12T01:47:41;-0.90;96.30
45868;DHT22;31582;45.490;7.860;2023-02-12T01:50:12;-0.90;95.90
45868;DHT22;31582;45.490;7.860;2023-02-12T01:52:44;-0.80;95.50
45868;DHT22;31582;45.490;7.860;2023-02-12T01:55:14;-0.40;92.50
45868;DHT22;31582;45.490;7.860;2023-02-12T01:57:43;-0.30;91.90
45868;DHT22;31582;45.490;7.860;2023-02-12T02:00:14;-0.30;91.40
45868;DHT22;31582;45.490;7.860;2023-02-12T02:02:45;-0.30;90.80
45868;DHT22;31582;45.490;7.860;2023-02-12T06:13:44;-2.20;99.90
45868;DHT22;31582;45.490;7.860;2023-02-12T06:16:22;-2.20;99.90
45868;DHT22;31582;45.490;7.860;2023-02-12T06:18:50;-2.10;99.90
45868;DHT22;31582;45.490;7.860;2023-02-12T06:21:20;-2.10;99.90
45868;DHT22;31582;45.490;7.860;2023-02-12T06:23:48;-2.10;99.90
45868;DHT22;31582;45.490;7.860;2023-02-12T06:26:15;-2.00;99.90
45868;DHT22;31582;45.490;7.860;2023-02-12T06:28:43;-1.90;99.90
45868;DHT22;31582;45.490;7.860;2023-02-12T06:33:46;-1.60;99.90
45868;DHT22;31582;45.490;7.860;2023-02-12T06:36:13;-1.60;99.90
45868;DHT22;31582;45.490;7.860;2023-02-12T06:38:41;-1.60;99.90
45868;DHT22;31582;45.490;7.860;2023-02-12T06:41:10;-1.70;99.90
45868;DHT22;31582;45.490;7.860;2023-02-12T06:43:37;-1.80;99.90
45868;DHT22;31582;45.490;7.860;2023-02-12T06:46:05;-1.70;99.90
45868;DHT22;31582;45.490;7.860;2023-02-12T06:48:33;-1.80;99.90
45868;DHT22;31582;45.490;7.860;2023-02-12T06:51:12;-1.70;99.90
45868;DHT22;31582;45.490;7.860;2023-02-12T06:53:40;-1.70;99.90
45868;DHT22;31582;45.490;7.860;2023-02-12T06:56:09;-1.60;99.90
45868;DHT22;31582;45.490;7.860;2023-02-12T06:58:42;-1.60;99.90
45868;DHT22;31582;45.490;7.860;2023-02-12T07:01:21;-1.70;99.90
45868;DHT22;31582;45.490;7.860;2023-02-12T07:03:54;-1.70;99.90
45868;DHT22;31582;45.490;7.860;2023-02-12T07:06:22;-1.70;99.90
45868;DHT22;31582;45.490;7.860;2023-02-12T07:08:49;-1.70;99.90
45868;DHT22;31582;45.490;7.860;2023-02-12T07:11:17;-1.60;99.90
45868;DHT22;31582;45.490;7.860;2023-02-12T07:13:44;-1.60;99.90
45868;DHT22;31582;45.490;7.860;2023-02-12T07:16:14;-1.50;99.90
45868;DHT22;31582;45.490;7.860;2023-02-12T07:18:42;-1.50;99.90
45868;DHT22;31582;45.490;7.860;2023-02-12T07:21:12;-1.50;99.90
45868;DHT22;31582;45.490;7.860;2023-02-12T07:23:40;-1.50;99.90
45868;DHT22;31582;45.490;7.860;2023-02-12T07:26:11;-1.50;99.90
45868;DHT22;31582;45.490;7.860;2023-02-12T07:28:39;-1.40;99.90
45868;DHT22;31582;45.490;7.860;2023-02-12T07:31:15;-1.40;99.90
45868;DHT22;31582;45.490;7.860;2023-02-12T07:33:43;-1.40;99.90
45868;DHT22;31582;45.490;7.860;2023-02-12T07:36:13;-1.30;99.90
45868;DHT22;31582;45.490;7.860;2023-02-12T07:38:40;-1.20;99.90
45868;DHT22;31582;45.490;7.860;2023-02-12T07:43:44;-1.00;99.90
45868;DHT22;31582;45.490;7.860;2023-02-12T07:46:12;-0.70;99.90
45868;DHT22;31582;45.490;7.860;2023-02-12T07:48:40;-0.50;99.90
45868;DHT22;31582;45.490;7.860;2023-02-12T07:51:10;-0.10;99.90
45868;DHT22;31582;45.490;7.860;2023-02-12T07:53:38;0.20;98.10
45868;DHT22;31582;45.490;7.860;2023-02-12T07:56:11;0.50;96.50
45868;DHT22;31582;45.490;7.860;2023-02-12T07:58:41;0.80;95.40
45868;DHT22;31582;45.490;7.860;2023-02-12T08:20:40;3.20;73.60
45868;DHT22;31582;45.490;7.860;2023-02-12T08:58:07;6.00;59.20
45868;DHT22;31582;45.490;7.860;2023-02-12T09:47:28;9.30;51.80
45868;DHT22;31582;45.490;7.860;2023-02-12T09:53:16;9.60;50.20
45868;DHT22;31582;45.490;7.860;2023-02-12T09:55:48;9.80;49.40
45868;DHT22;31582;45.490;7.860;2023-02-12T09:58:43;9.70;48.60
45868;DHT22;31582;45.490;7.860;2023-02-12T10:01:12;9.90;47.10
45868;DHT22;31582;45.490;7.860;2023-02-12T10:03:42;9.90;48.00
45868;DHT22;31582;45.490;7.860;2023-02-12T10:06:21;10.10;47.70
45868;DHT22;31582;45.490;7.860;2023-02-12T10:08:58;10.30;46.80
45868;DHT22;31582;45.490;7.860;2023-02-12T10:25:11;10.80;44.80
45868;DHT22;31582;45.490;7.860;2023-02-12T10:27:51;11.00;45.10
45868;DHT22;31582;45.490;7.860;2023-02-12T10:33:08;11.40;43.10
45868;DHT22;31582;45.490;7.860;2023-02-12T10:35:44;11.60;42.70
45868;DHT22;31582;45.490;7.860;2023-02-12T10:38:18;11.80;42.20
45868;DHT22;31582;45.490;7.860;2023-02-12T10:40:46;11.90;41.20
45868;DHT22;31582;45.490;7.860;2023-02-12T10:43:13;12.00;40.90
45868;DHT22;31582;45.490;7.860;2023-02-12T10:45:42;11.90;41.00
45868;DHT22;31582;45.490;7.860;2023-02-12T10:48:17;12.00;41.80
45868;DHT22;31582;45.490;7.860;2023-02-12T10:53:40;12.20;40.40
45868;DHT22;31582;45.490;7.860;2023-02-12T10:58:59;12.30;40.60
45868;DHT22;31582;45.490;7.860;2023-02-12T11:01:29;12.30;38.60
45868;DHT22;31582;45.490;7.860;2023-02-12T11:03:59;12.30;40.20
45868;DHT22;31582;45.490;7.860;2023-02-12T11:06:31;12.50;39.50
45868;DHT22;31582;45.490;7.860;2023-02-12T11:08:58;12.80;39.40
45868;DHT22;31582;45.490;7.860;2023-02-12T11:11:29;12.90;37.50
45868;DHT22;31582;45.490;7.860;2023-02-12T11:14:16;13.10;38.20
45868;DHT22;31582;45.490;7.860;2023-02-12T11:16:56;13.30;35.80
45868;DHT22;31582;45.490;7.860;2023-02-12T11:19:26;13.40;35.20
45868;DHT22;31582;45.490;7.860;2023-02-12T11:22:06;13.50;34.20
45868;DHT22;31582;45.490;7.860;2023-02-12T11:24:36;13.60;34.20
45868;DHT22;31582;45.490;7.860;2023-02-12T11:29:45;14.10;34.10
45868;DHT22;31582;45.490;7.860;2023-02-12T11:32:17;14.20;33.50
45868;DHT22;31582;45.490;7.860;2023-02-12T11:35:09;14.40;33.70
45868;DHT22;31582;45.490;7.860;2023-02-12T11:37:42;14.70;33.40
45868;DHT22;31582;45.490;7.860;2023-02-12T11:40:24;14.90;33.10
45868;DHT22;31582;45.490;7.860;2023-02-12T11:45:29;15.00;32.20
45868;DHT22;31582;45.490;7.860;2023-02-12T11:47:58;15.00;33.10
45868;DHT22;31582;45.490;7.860;2023-02-12T11:50:29;15.00;34.00
45868;DHT22;31582;45.490;7.860;2023-02-12T11:53:06;15.10;32.80
45868;DHT22;31582;45.490;7.860;2023-02-12T11:55:38;15.20;32.70
45868;DHT22;31582;45.490;7.860;2023-02-12T11:58:16;15.40;31.80
45868;DHT22;31582;45.490;7.860;2023-02-12T12:00:58;15.50;32.40
45868;DHT22;31582;45.490;7.860;2023-02-12T12:09:02;15.60;31.10
45868;DHT22;31582;45.490;7.860;2023-02-12T12:11:56;15.80;31.60
45868;DHT22;31582;45.490;7.860;2023-02-12T12:14:45;15.90;31.80
45868;DHT22;31582;45.490;7.860;2023-02-12T12:17:55;15.80;31.00
45868;DHT22;31582;45.490;7.860;2023-02-12T12:20:52;15.80;30.70
45868;DHT22;31582;45.490;7.860;2023-02-12T12:23:28;16.00;30.40
45868;DHT22;31582;45.490;7.860;2023-02-12T12:26:06;16.20;30.00
45868;DHT22;31582;45.490;7.860;2023-02-12T12:28:35;16.30;29.70
45868;DHT22;31582;45.490;7.860;2023-02-12T12:31:10;16.40;28.90
45868;DHT22;31582;45.490;7.860;2023-02-12T12:34:19;16.50;28.90
45868;DHT22;31582;45.490;7.860;2023-02-12T12:42:54;16.50;29.10
45868;DHT22;31582;45.490;7.860;2023-02-12T12:53:40;17.10;27.40
45868;DHT22;31582;45.490;7.860;2023-02-12T12:56:51;17.30;27.90
45868;DHT22;31582;45.490;7.860;2023-02-12T12:59:34;17.30;27.80
45868;DHT22;31582;45.490;7.860;2023-02-12T13:10:47;17.50;28.30
45868;DHT22;31582;45.490;7.860;2023-02-12T13:15:54;17.50;28.40
45868;DHT22;31582;45.490;7.860;2023-02-12T13:24:04;17.20;29.70
45868;DHT22;31582;45.490;7.860;2023-02-12T13:29:36;16.80;29.70
45868;DHT22;31582;45.490;7.860;2023-02-12T13:32:10;17.10;29.90
45868;DHT22;31582;45.490;7.860;2023-02-12T13:34:41;17.10;29.70
45868;DHT22;31582;45.490;7.860;2023-02-12T13:37:16;17.00;29.20
45868;DHT22;31582;45.490;7.860;2023-02-12T13:39:46;16.90;29.40
45868;DHT22;31582;45.490;7.860;2023-02-12T13:50:52;16.90;30.10
45868;DHT22;31582;45.490;7.860;2023-02-12T13:54:13;17.30;28.90
45868;DHT22;31582;45.490;7.860;2023-02-12T13:57:01;17.40;28.60
45868;DHT22;31582;45.490;7.860;2023-02-12T14:02:25;17.00;29.30
45868;DHT22;31582;45.490;7.860;2023-02-12T14:07:20;16.70;29.40
45868;DHT22;31582;45.490;7.860;2023-02-12T14:15:05;16.70;29.90
45868;DHT22;31582;45.490;7.860;2023-02-12T14:20:27;16.80;30.60
45868;DHT22;31582;45.490;7.860;2023-02-12T14:23:22;17.10;30.10
45868;DHT22;31582;45.490;7.860;2023-02-12T14:26:04;17.20;29.80
45868;DHT22;31582;45.490;7.860;2023-02-12T14:28:53;17.20;30.20
45868;DHT22;31582;45.490;7.860;2023-02-12T14:36:43;16.60;30.00
45868;DHT22;31582;45.490;7.860;2023-02-12T14:41:48;16.40;30.10
45868;DHT22;31582;45.490;7.860;2023-02-12T14:46:51;16.70;30.60
45868;DHT22;31582;45.490;7.860;2023-02-12T14:49:37;16.70;31.00
45868;DHT22;31582;45.490;7.860;2023-02-12T14:52:21;16.70;30.90
45868;DHT22;31582;45.490;7.860;2023-02-12T14:54:54;16.80;31.20
45868;DHT22;31582;45.490;7.860;2023-02-12T14:57:35;16.90;30.70
45868;DHT22;31582;45.490;7.860;2023-02-12T15:00:22;17.10;30.60
45868;DHT22;31582;45.490;7.860;2023-02-12T15:03:17;17.10;30.40
45868;DHT22;31582;45.490;7.860;2023-02-12T15:09:01;17.00;30.60
45868;DHT22;31582;45.490;7.860;2023-02-12T15:11:38;17.00;30.50
45868;DHT22;31582;45.490;7.860;2023-02-12T15:22:19;16.70;30.40
45868;DHT22;31582;45.490;7.860;2023-02-12T15:24:47;16.40;31.00
45868;DHT22;31582;45.490;7.860;2023-02-12T15:27:16;16.30;31.10
45868;DHT22;31582;45.490;7.860;2023-02-12T15:29:51;16.30;31.50
45868;DHT22;31582;45.490;7.860;2023-02-12T15:32:24;16.20;31.30
45868;DHT22;31582;45.490;7.860;2023-02-12T15:34:53;16.20;31.20
45868;DHT22;31582;45.490;7.860;2023-02-12T15:37:26;16.10;31.30
45868;DHT22;31582;45.490;7.860;2023-02-12T15:39:57;16.00;31.70
45868;DHT22;31582;45.490;7.860;2023-02-12T15:42:35;15.90;32.20
45868;DHT22;31582;45.490;7.860;2023-02-12T15:47:42;15.80;32.60
45868;DHT22;31582;45.490;7.860;2023-02-12T15:50:16;15.80;32.70
45868;DHT22;31582;45.490;7.860;2023-02-12T15:52:45;15.80;33.10
45868;DHT22;31582;45.490;7.860;2023-02-12T15:55:24;15.80;33.50
45868;DHT22;31582;45.490;7.860;2023-02-12T15:57:56;15.80;33.40
45868;DHT22;31582;45.490;7.860;2023-02-12T16:00:40;15.80;33.80
45868;DHT22;31582;45.490;7.860;2023-02-12T16:03:26;15.80;34.20
45868;DHT22;31582;45.490;7.860;2023-02-12T16:05:58;15.70;34.20
45868;DHT22;31582;45.490;7.860;2023-02-12T16:08:26;15.60;34.70
45868;DHT22;31582;45.490;7.860;2023-02-12T16:10:54;15.60;35.00
45868;DHT22;31582;45.490;7.860;2023-02-12T16:13:33;15.50;35.70
45868;DHT22;31582;45.490;7.860;2023-02-12T16:16:05;15.40;35.60
45868;DHT22;31582;45.490;7.860;2023-02-12T16:18:32;15.30;36.20
45868;DHT22;31582;45.490;7.860;2023-02-12T16:21:19;15.20;37.40
45868;DHT22;31582;45.490;7.860;2023-02-12T16:23:49;15.10;38.30
45868;DHT22;31582;45.490;7.860;2023-02-12T16:26:25;14.70;39.20
45868;DHT22;31582;45.490;7.860;2023-02-12T16:28:54;14.70;39.50
45868;DHT22;31582;45.490;7.860;2023-02-12T16:31:25;14.50;39.30
45868;DHT22;31582;45.490;7.860;2023-02-12T16:33:54;14.40;39.40
45868;DHT22;31582;45.490;7.860;2023-02-12T16:38:52;14.10;39.40
45868;DHT22;31582;45.490;7.860;2023-02-12T16:41:24;14.00;39.80
45868;DHT22;31582;45.490;7.860;2023-02-12T16:46:19;13.80;40.20
45868;DHT22;31582;45.490;7.860;2023-02-12T16:48:49;13.60;40.40
45868;DHT22;31582;45.490;7.860;2023-02-12T16:51:27;13.50;41.00
45868;DHT22;31582;45.490;7.860;2023-02-12T16:53:58;13.40;41.50
45868;DHT22;31582;45.490;7.860;2023-02-12T16:56:28;13.10;41.90
45868;DHT22;31582;45.490;7.860;2023-02-12T16:58:57;12.80;42.20
45868;DHT22;31582;45.490;7.860;2023-02-12T17:01:27;12.60;42.40
45868;DHT22;31582;45.490;7.860;2023-02-12T17:03:56;12.40;43.70
45868;DHT22;31582;45.490;7.860;2023-02-12T17:06:26;12.10;43.10
45868;DHT22;31582;45.490;7.860;2023-02-12T17:08:54;11.90;43.80
45868;DHT22;31582;45.490;7.860;2023-02-12T17:11:22;11.50;44.70
45868;DHT22;31582;45.490;7.860;2023-02-12T17:13:51;11.30;45.30
45868;DHT22;31582;45.490;7.860;2023-02-12T17:16:19;11.00;46.10
45868;DHT22;31582;45.490;7.860;2023-02-12T17:18:57;10.80;47.00
45868;DHT22;31582;45.490;7.860;2023-02-12T17:21:33;10.70;47.70
45868;DHT22;31582;45.490;7.860;2023-02-12T17:24:06;10.60;47.60
45868;DHT22;31582;45.490;7.860;2023-02-12T17:26:33;10.50;47.70
45868;DHT22;31582;45.490;7.860;2023-02-12T17:29:00;10.50;48.40
45868;DHT22;31582;45.490;7.860;2023-02-12T17:31:34;10.30;49.00
45868;DHT22;31582;45.490;7.860;2023-02-12T17:34:04;10.20;49.60
45868;DHT22;31582;45.490;7.860;2023-02-12T17:36:31;10.10;49.90
45868;DHT22;31582;45.490;7.860;2023-02-12T17:38:59;9.80;50.80
45868;DHT22;31582;45.490;7.860;2023-02-12T17:41:26;9.80;51.30
45868;DHT22;31582;45.490;7.860;2023-02-12T17:43:54;9.70;51.20
45868;DHT22;31582;45.490;7.860;2023-02-12T17:46:24;9.50;51.90
45868;DHT22;31582;45.490;7.860;2023-02-12T17:48:51;9.50;51.80
45868;DHT22;31582;45.490;7.860;2023-02-12T17:51:19;9.30;52.00
45868;DHT22;31582;45.490;7.860;2023-02-12T17:53:46;9.20;52.30
45868;DHT22;31582;45.490;7.860;2023-02-12T17:56:16;9.20;52.40
45868;DHT22;31582;45.490;7.860;2023-02-12T17:58:43;9.10;52.90
45868;DHT22;31582;45.490;7.860;2023-02-12T18:01:16;9.10;52.50
45868;DHT22;31582;45.490;7.860;2023-02-12T18:03:44;9.00;52.30
45868;DHT22;31582;45.490;7.860;2023-02-12T18:06:12;8.80;53.90
45868;DHT22;31582;45.490;7.860;2023-02-12T18:08:42;8.70;53.90
45868;DHT22;31582;45.490;7.860;2023-02-12T18:11:10;8.60;55.40
45868;DHT22;31582;45.490;7.860;2023-02-12T18:13:37;8.40;55.90
45868;DHT22;31582;45.490;7.860;2023-02-12T18:16:06;8.40;56.40
45868;DHT22;31582;45.490;7.860;2023-02-12T18:18:35;8.30;56.90
45868;DHT22;31582;45.490;7.860;2023-02-12T18:21:11;8.30;55.90
45868;DHT22;31582;45.490;7.860;2023-02-12T18:23:39;8.30;55.50
45868;DHT22;31582;45.490;7.860;2023-02-12T18:26:08;8.20;56.90
45868;DHT22;31582;45.490;7.860;2023-02-12T18:28:36;8.10;57.20
45868;DHT22;31582;45.490;7.860;2023-02-12T18:31:05;8.00;57.30
45868;DHT22;31582;45.490;7.860;2023-02-12T18:33:33;7.90;58.50
45868;DHT22;31582;45.490;7.860;2023-02-12T18:36:11;7.90;57.90
45868;DHT22;31582;45.490;7.860;2023-02-12T18:38:40;7.90;57.70
45868;DHT22;31582;45.490;7.860;2023-02-12T18:41:10;7.90;56.50
45868;DHT22;31582;45.490;7.860;2023-02-12T18:43:39;7.90;56.30
45868;DHT22;31582;45.490;7.860;2023-02-12T18:46:15;7.90;56.00
45868;DHT22;31582;45.490;7.860;2023-02-12T18:48:43;7.60;56.50
45868;DHT22;31582;45.490;7.860;2023-02-12T18:51:14;7.60;57.30
45868;DHT22;31582;45.490;7.860;2023-02-12T18:53:42;7.40;57.70
45868;DHT22;31582;45.490;7.860;2023-02-12T18:56:13;7.30;58.10
45868;DHT22;31582;45.490;7.860;2023-02-12T18:58:41;7.30;58.30
45868;DHT22;31582;45.490;7.860;2023-02-12T19:01:18;7.30;57.50
45868;DHT22;31582;45.490;7.860;2023-02-12T19:03:46;7.20;58.90
45868;DHT22;31582;45.490;7.860;2023-02-12T19:06:19;7.40;56.40
45868;DHT22;31582;45.490;7.860;2023-02-12T19:08:46;8.00;53.60
45868;DHT22;31582;45.490;7.860;2023-02-12T19:11:14;8.20;53.20
45868;DHT22;31582;45.490;7.860;2023-02-12T19:13:41;8.20;53.50
45868;DHT22;31582;45.490;7.860;2023-02-12T19:16:11;8.10;53.60
45868;DHT22;31582;45.490;7.860;2023-02-12T19:18:40;7.80;55.40
45868;DHT22;31582;45.490;7.860;2023-02-12T19:21:11;7.70;55.40
45868;DHT22;31582;45.490;7.860;2023-02-12T19:23:38;7.60;55.00
45868;DHT22;31582;45.490;7.860;2023-02-12T19:26:08;7.50;55.40
45868;DHT22;31582;45.490;7.860;2023-02-12T19:28:36;7.30;55.20
45868;DHT22;31582;45.490;7.860;2023-02-12T19:31:21;7.30;55.60
45868;DHT22;31582;45.490;7.860;2023-02-12T19:33:53;7.20;55.80
45868;DHT22;31582;45.490;7.860;2023-02-12T19:36:20;6.80;58.50
45868;DHT22;31582;45.490;7.860;2023-02-12T19:38:48;6.70;58.50
45868;DHT22;31582;45.490;7.860;2023-02-12T19:41:17;6.50;58.90
45868;DHT22;31582;45.490;7.860;2023-02-12T19:43:46;6.40;59.10
45868;DHT22;31582;45.490;7.860;2023-02-12T19:46:18;6.40;59.30
45868;DHT22;31582;45.490;7.860;2023-02-12T19:48:48;6.20;60.60
45868;DHT22;31582;45.490;7.860;2023-02-12T19:51:17;6.00;62.30
45868;DHT22;31582;45.490;7.860;2023-02-12T19:53:45;5.80;63.90
45868;DHT22;31582;45.490;7.860;2023-02-12T19:56:14;5.80;63.20
45868;DHT22;31582;45.490;7.860;2023-02-12T19:58:41;5.80;63.40
45868;DHT22;31582;45.490;7.860;2023-02-12T20:01:15;5.70;63.10
45868;DHT22;31582;45.490;7.860;2023-02-12T20:03:43;5.60;65.10
45868;DHT22;31582;45.490;7.860;2023-02-12T20:06:19;5.60;65.30
45868;DHT22;31582;45.490;7.860;2023-02-12T20:08:48;5.50;65.00
45868;DHT22;31582;45.490;7.860;2023-02-12T20:11:26;5.50;65.50
45868;DHT22;31582;45.490;7.860;2023-02-12T20:13:56;5.40;68.50
45868;DHT22;31582;45.490;7.860;2023-02-12T20:16:27;5.30;67.70
45868;DHT22;31582;45.490;7.860;2023-02-12T20:19:00;5.30;67.70
45868;DHT22;31582;45.490;7.860;2023-02-12T20:21:29;5.30;66.70
45868;DHT22;31582;45.490;7.860;2023-02-12T20:23:57;5.30;66.10
45868;DHT22;31582;45.490;7.860;2023-02-12T20:26:24;5.30;66.30
45868;DHT22;31582;45.490;7.860;2023-02-12T20:28:54;5.30;66.10
45868;DHT22;31582;45.490;7.860;2023-02-12T20:31:28;5.30;65.20
45868;DHT22;31582;45.490;7.860;2023-02-12T20:33:59;5.30;65.00
45868;DHT22;31582;45.490;7.860;2023-02-12T20:36:29;5.30;64.70
45868;DHT22;31582;45.490;7.860;2023-02-12T20:38:57;5.30;65.00
45868;DHT22;31582;45.490;7.860;2023-02-12T20:41:26;5.20;65.80
45868;DHT22;31582;45.490;7.860;2023-02-12T20:43:54;5.20;64.70
45868;DHT22;31582;45.490;7.860;2023-02-12T20:46:22;5.20;63.90
45868;DHT22;31582;45.490;7.860;2023-02-12T20:48:51;5.20;63.50
45868;DHT22;31582;45.490;7.860;2023-02-12T20:51:21;5.00;64.70
45868;DHT22;31582;45.490;7.860;2023-02-12T20:53:49;5.10;63.90
45868;DHT22;31582;45.490;7.860;2023-02-12T20:56:19;5.00;63.10
45868;DHT22;31582;45.490;7.860;2023-02-12T20:58:47;5.00;63.40
45868;DHT22;31582;45.490;7.860;2023-02-12T21:01:20;4.80;64.30
45868;DHT22;31582;45.490;7.860;2023-02-12T21:03:49;4.70;64.80
45868;DHT22;31582;45.490;7.860;2023-02-12T21:06:18;4.50;65.70
45868;DHT22;31582;45.490;7.860;2023-02-12T21:08:48;4.50;65.90
45868;DHT22;31582;45.490;7.860;2023-02-12T21:11:20;4.20;69.20
45868;DHT22;31582;45.490;7.860;2023-02-12T21:13:52;4.00;71.40
45868;DHT22;31582;45.490;7.860;2023-02-12T21:16:37;4.00;73.10
45868;DHT22;31582;45.490;7.860;2023-02-12T21:19:07;4.00;72.20
45868;DHT22;31582;45.490;7.860;2023-02-12T21:21:37;4.00;71.00
45868;DHT22;31582;45.490;7.860;2023-02-12T21:24:07;4.00;70.90
45868;DHT22;31582;45.490;7.860;2023-02-12T21:26:34;4.10;69.60
45868;DHT22;31582;45.490;7.860;2023-02-12T21:29:02;4.00;69.10
45868;DHT22;31582;45.490;7.860;2023-02-12T21:31:33;4.00;69.50
45868;DHT22;31582;45.490;7.860;2023-02-12T21:34:01;4.00;68.50
45868;DHT22;31582;45.490;7.860;2023-02-12T21:36:34;3.70;70.00
45868;DHT22;31582;45.490;7.860;2023-02-12T21:39:03;3.70;70.40
45868;DHT22;31582;45.490;7.860;2023-02-12T21:41:35;3.60;70.90
45868;DHT22;31582;45.490;7.860;2023-02-12T21:44:06;3.50;74.40
45868;DHT22;31582;45.490;7.860;2023-02-12T21:46:34;3.40;74.10
45868;DHT22;31582;45.490;7.860;2023-02-12T21:49:02;3.40;74.10
45868;DHT22;31582;45.490;7.860;2023-02-12T21:51:32;3.40;73.50
45868;DHT22;31582;45.490;7.860;2023-02-12T21:54:02;3.40;72.90
45868;DHT22;31582;45.490;7.860;2023-02-12T21:56:29;3.30;75.20
45868;DHT22;31582;45.490;7.860;2023-02-12T21:58:58;3.30;74.40
45868;DHT22;31582;45.490;7.860;2023-02-12T22:01:30;3.20;75.30
45868;DHT22;31582;45.490;7.860;2023-02-12T22:04:00;3.20;75.00
45868;DHT22;31582;45.490;7.860;2023-02-12T22:06:27;3.20;74.50
45868;DHT22;31582;45.490;7.860;2023-02-12T22:09:00;3.20;73.90
45868;DHT22;31582;45.490;7.860;2023-02-12T22:11:27;3.20;75.30
45868;DHT22;31582;45.490;7.860;2023-02-12T22:13:54;3.10;74.50
45868;DHT22;31582;45.490;7.860;2023-02-12T22:16:24;3.10;74.90
45868;DHT22;31582;45.490;7.860;2023-02-12T22:18:53;2.90;76.70
45868;DHT22;31582;45.490;7.860;2023-02-12T22:21:23;2.90;76.30
45868;DHT22;31582;45.490;7.860;2023-02-12T22:23:50;2.90;76.70
45868;DHT22;31582;45.490;7.860;2023-02-12T22:26:20;2.90;76.30
45868;DHT22;31582;45.490;7.860;2023-02-12T22:28:49;2.80;76.10
45868;DHT22;31582;45.490;7.860;2023-02-12T22:31:19;2.80;76.20
45868;DHT22;31582;45.490;7.860;2023-02-12T22:33:52;2.70;77.80
45868;DHT22;31582;45.490;7.860;2023-02-12T22:36:20;2.70;77.00
45868;DHT22;31582;45.490;7.860;2023-02-12T22:38:48;2.70;77.20
45868;DHT22;31582;45.490;7.860;2023-02-12T22:41:15;2.70;76.30
45868;DHT22;31582;45.490;7.860;2023-02-12T22:43:42;2.70;76.50
45868;DHT22;31582;45.490;7.860;2023-02-12T22:46:12;2.60;77.00
45868;DHT22;31582;45.490;7.860;2023-02-12T22:48:39;2.50;76.90
45868;DHT22;31582;45.490;7.860;2023-02-12T22:51:28;2.50;77.00
45868;DHT22;31582;45.490;7.860;2023-02-12T22:53:56;2.50;76.80
45868;DHT22;31582;45.490;7.860;2023-02-12T22:56:25;2.40;78.90
45868;DHT22;31582;45.490;7.860;2023-02-12T22:58:58;2.50;78.30
45868;DHT22;31582;45.490;7.860;2023-02-12T23:01:26;2.40;78.60
45868;DHT22;31582;45.490;7.860;2023-02-12T23:03:54;2.30;77.90
45868;DHT22;31582;45.490;7.860;2023-02-12T23:06:26;2.30;79.10
45868;DHT22;31582;45.490;7.860;2023-02-12T23:08:56;2.20;78.20
45868;DHT22;31582;45.490;7.860;2023-02-12T23:11:26;2.20;78.20
45868;DHT22;31582;45.490;7.860;2023-02-12T23:13:54;2.10;79.90
45868;DHT22;31582;45.490;7.860;2023-02-12T23:16:21;2.00;80.60
45868;DHT22;31582;45.490;7.860;2023-02-12T23:18:56;2.00;81.40
45868;DHT22;31582;45.490;7.860;2023-02-12T23:21:24;1.90;81.80
45868;DHT22;31582;45.490;7.860;2023-02-12T23:23:52;1.90;82.70
45868;DHT22;31582;45.490;7.860;2023-02-12T23:26:19;1.80;83.10
45868;DHT22;31582;45.490;7.860;2023-02-12T23:28:46;1.80;82.90
45868;DHT22;31582;45.490;7.860;2023-02-12T23:31:13;1.80;82.40
45868;DHT22;31582;45.490;7.860;2023-02-12T23:33:40;1.70;83.90
45868;DHT22;31582;45.490;7.860;2023-02-12T23:36:07;1.70;85.10
45868;DHT22;31582;45.490;7.860;2023-02-12T23:38:34;1.50;88.40
45868;DHT22;31582;45.490;7.860;2023-02-12T23:41:01;1.60;86.80
45868;DHT22;31582;45.490;7.860;2023-02-12T23:43:28;1.50;85.90
45868;DHT22;31582;45.490;7.860;2023-02-12T23:45:55;1.60;85.90
45868;DHT22;31582;45.490;7.860;2023-02-12T23:48:22;1.50;86.90
45868;DHT22;31582;45.490;7.860;2023-02-12T23:50:49;1.50;85.90
45868;DHT22;31582;45.490;7.860;2023-02-12T23:53:16;1.50;85.60
45868;DHT22;31582;45.490;7.860;2023-02-12T23:55:45;1.50;85.00
45868;DHT22;31582;45.490;7.860;2023-02-12T23:58:14;1.50;85.30
